Atlas, Michigan
Current Conditions -  °F | °C
As of 7:53 PM on Friday 24 Oct 2014 (Local Time) from KFNT Reporting Station
Overcast Overcast  
Wind Chill: 57°   Ceiling: 4300
Heat Index: 57°   Visibility: 10mi
Dew Point: 48°   Wind: 3mph
Humidity: 72%   Direction: 210°SSW
Pressure: 29.97"   Gusts: NA
Location:  42.94°N, 83.53°W
Report Text: KFNT 242353Z 21003KT 10SM OVC043 14/09 A2997 RMK AO2 SLP153 T01390089 10172 20139 55002
Loading
Personal Weather Stations






























Interactive Weather Map New forecast layout! Learn more

10-Day Weather Forecast

Advertisements
Track Severe Weather on mobile